createdAt,value
2019-01-15T00:01:47.950Z,2.37
2019-01-15T00:04:19.131Z,2.38
2019-01-15T00:06:48.731Z,2.42
2019-01-15T00:09:19.159Z,2.39
2019-01-15T00:11:50.769Z,2.37
2019-01-15T00:14:20.299Z,2.35
2019-01-15T00:16:50.315Z,2.39
2019-01-15T00:19:23.553Z,2.40
2019-01-15T00:21:53.132Z,2.31
2019-01-15T00:24:23.684Z,2.31
2019-01-15T00:26:52.940Z,2.29
2019-01-15T00:29:22.542Z,2.32
2019-01-15T00:31:51.805Z,2.25
2019-01-15T00:34:21.081Z,2.17
2019-01-15T00:36:50.364Z,2.22
2019-01-15T00:39:19.894Z,2.18
2019-01-15T00:41:50.781Z,2.21
2019-01-15T00:44:20.343Z,2.14
2019-01-15T00:46:52.229Z,2.15
2019-01-15T00:49:22.269Z,2.11
2019-01-15T00:51:53.522Z,2.16
2019-01-15T00:54:24.635Z,2.12
2019-01-15T00:56:54.762Z,2.11
2019-01-15T00:59:24.010Z,2.08
2019-01-15T01:01:54.337Z,2.02
2019-01-15T01:04:25.930Z,2.02
2019-01-15T01:06:55.439Z,1.97
2019-01-15T01:09:24.978Z,1.91
2019-01-15T01:11:55.720Z,1.95
2019-01-15T01:14:27.243Z,1.97
2019-01-15T01:16:57.997Z,1.95
2019-01-15T01:19:27.471Z,1.91
2019-01-15T01:21:59.120Z,1.85
2019-01-15T01:24:28.611Z,1.87
2019-01-15T01:26:58.536Z,1.95
2019-01-15T01:29:28.201Z,1.97
2019-01-15T01:31:57.734Z,1.99
2019-01-15T01:34:27.015Z,2.02
2019-01-15T01:36:57.815Z,2.01
2019-01-15T01:39:28.630Z,1.96
2019-01-15T01:42:18.151Z,1.91
2019-01-15T01:44:47.454Z,1.94
2019-01-15T01:47:16.984Z,1.97
2019-01-15T01:49:47.622Z,1.98
2019-01-15T01:52:18.705Z,1.86
2019-01-15T01:54:49.352Z,1.88
2019-01-15T01:57:23.543Z,1.90
2019-01-15T01:59:53.619Z,1.94
2019-01-15T02:02:23.169Z,1.88
2019-01-15T02:04:52.412Z,1.94
2019-01-15T02:07:25.317Z,1.96
2019-01-15T02:09:54.817Z,1.97
2019-01-15T02:12:24.880Z,1.98
2019-01-15T02:14:56.222Z,2.03
2019-01-15T02:17:26.291Z,2.04
2019-01-15T02:19:55.985Z,2.04
2019-01-15T02:22:26.105Z,2.01
2019-01-15T02:24:56.223Z,2.00
2019-01-15T02:27:26.868Z,2.00
2019-01-15T02:29:56.105Z,2.03
2019-01-15T02:32:25.625Z,2.10
2019-01-15T02:34:56.070Z,2.11
2019-01-15T02:37:28.260Z,2.11
2019-01-15T02:39:57.526Z,2.14
2019-01-15T02:42:27.908Z,2.12
2019-01-15T02:45:03.209Z,2.06
2019-01-15T02:47:32.730Z,2.04
2019-01-15T02:50:05.315Z,2.09
2019-01-15T02:52:36.093Z,2.00
2019-01-15T02:55:07.668Z,1.90
2019-01-15T02:57:37.286Z,1.98
2019-01-15T03:00:29.799Z,1.97
2019-01-15T03:03:01.908Z,1.98
2019-01-15T03:05:31.443Z,1.84
2019-01-15T03:08:01.732Z,1.99
2019-01-15T03:10:38.254Z,1.89
2019-01-15T03:13:08.009Z,1.79
2019-01-15T03:15:40.684Z,1.73
2019-01-15T03:18:10.299Z,1.84
2019-01-15T03:20:39.581Z,1.78
2019-01-15T03:23:09.432Z,1.67
2019-01-15T03:25:39.833Z,1.83
2019-01-15T03:28:10.217Z,1.73
2019-01-15T03:30:41.471Z,1.76
2019-01-15T03:33:13.011Z,1.74
2019-01-15T03:35:42.857Z,1.85
2019-01-15T03:38:15.176Z,1.86
2019-01-15T03:40:45.519Z,1.83
2019-01-15T03:43:15.151Z,1.73
2019-01-15T03:45:44.807Z,1.70
2019-01-15T03:48:15.756Z,1.89
2019-01-15T03:50:45.311Z,1.81
2019-01-15T03:53:18.328Z,1.80
2019-01-15T03:55:47.532Z,1.69
2019-01-15T03:58:17.397Z,1.52
2019-01-15T04:00:55.458Z,1.48
2019-01-15T04:03:25.684Z,1.49
2019-01-15T04:05:54.957Z,1.49
2019-01-15T04:08:24.995Z,1.51
2019-01-15T04:10:58.505Z,1.66
2019-01-15T04:13:28.005Z,1.82
2019-01-15T04:15:57.868Z,1.76
2019-01-15T04:18:30.015Z,1.97
2019-01-15T04:21:06.981Z,1.90
2019-01-15T04:23:37.321Z,1.89
2019-01-15T04:26:07.403Z,1.88
2019-01-15T04:28:38.289Z,1.91
2019-01-15T04:31:09.605Z,1.97
2019-01-15T04:33:38.865Z,1.94
2019-01-15T04:36:08.448Z,1.98
2019-01-15T04:38:38.540Z,1.96
2019-01-15T04:41:14.133Z,1.94
2019-01-15T04:43:53.386Z,1.94
2019-01-15T04:46:23.825Z,1.93
2019-01-15T04:48:53.332Z,1.96
2019-01-15T04:51:25.374Z,2.06
2019-01-15T04:53:54.636Z,2.15
2019-01-15T04:56:25.359Z,2.07
2019-01-15T04:58:54.689Z,2.17
2019-01-15T05:01:45.190Z,2.21
2019-01-15T05:04:15.592Z,2.13
2019-01-15T05:06:46.884Z,2.12
2019-01-15T05:09:17.990Z,2.20
2019-01-15T05:11:47.778Z,2.15
2019-01-15T05:14:17.847Z,2.14
2019-01-15T05:16:47.086Z,2.23
2019-01-15T05:19:18.447Z,2.11
2019-01-15T05:21:48.171Z,2.10
2019-01-15T05:24:17.989Z,2.13
2019-01-15T05:26:48.630Z,2.16
2019-01-15T05:29:17.889Z,2.10
2019-01-15T05:31:47.787Z,2.22
2019-01-15T05:34:18.330Z,2.14
2019-01-15T05:36:48.457Z,2.04
2019-01-15T05:39:19.253Z,2.01
2019-01-15T05:41:48.823Z,2.03
2019-01-15T05:44:18.598Z,2.07
2019-01-15T05:46:50.493Z,2.08
2019-01-15T05:49:21.275Z,2.10
2019-01-15T05:51:50.829Z,2.09
2019-01-15T05:54:20.897Z,2.04
2019-01-15T05:56:50.141Z,2.11
2019-01-15T05:59:19.962Z,2.03
2019-01-15T06:01:51.268Z,2.01
2019-01-15T06:04:20.792Z,2.05
2019-01-15T06:06:50.813Z,2.10
2019-01-15T06:09:21.231Z,2.05
2019-01-15T06:11:51.610Z,2.10
2019-01-15T06:14:21.409Z,2.14
2019-01-15T06:16:50.909Z,2.12
2019-01-15T06:19:20.524Z,2.10
2019-01-15T06:21:50.771Z,2.15
2019-01-15T06:24:20.744Z,2.17
2019-01-15T06:26:50.862Z,2.14
2019-01-15T06:29:21.790Z,2.17
2019-01-15T06:31:52.158Z,2.13
2019-01-15T06:34:21.828Z,2.17
2019-01-15T06:36:52.339Z,2.11
2019-01-15T06:39:45.558Z,2.23
2019-01-15T06:42:25.547Z,2.21
2019-01-15T06:44:56.781Z,2.20
2019-01-15T06:47:27.155Z,2.27
2019-01-15T06:49:56.855Z,2.25
2019-01-15T06:52:26.389Z,2.23
2019-01-15T06:54:55.949Z,2.23
2019-01-15T06:57:25.795Z,2.33
2019-01-15T06:59:58.158Z,2.31
2019-01-15T07:02:31.187Z,2.32
2019-01-15T07:05:00.413Z,2.29
2019-01-15T07:07:31.262Z,2.26
2019-01-15T07:10:01.897Z,2.27
2019-01-15T07:12:31.534Z,2.25
2019-01-15T07:15:01.417Z,2.24
2019-01-15T07:17:31.074Z,2.32
2019-01-15T07:20:01.667Z,2.38
2019-01-15T07:22:30.942Z,2.28
2019-01-15T07:25:00.516Z,2.35
2019-01-15T07:27:30.123Z,2.30
2019-01-15T07:29:59.727Z,2.40
2019-01-15T07:32:34.769Z,2.42
2019-01-15T07:35:05.931Z,2.49
2019-01-15T07:37:36.549Z,2.39
2019-01-15T07:40:07.905Z,2.37
2019-01-15T07:42:49.835Z,2.36
2019-01-15T07:45:22.623Z,2.41
2019-01-15T07:47:52.867Z,2.43
2019-01-15T07:50:27.982Z,2.36
2019-01-15T07:52:59.404Z,2.33
2019-01-15T07:55:32.613Z,2.36
2019-01-15T07:58:04.595Z,2.36
2019-01-15T08:00:35.765Z,2.37
2019-01-15T08:03:06.078Z,2.37
2019-01-15T08:05:35.285Z,2.41
2019-01-15T08:08:06.981Z,2.50
2019-01-15T08:10:36.567Z,2.41
2019-01-15T08:13:08.005Z,2.46
2019-01-15T08:15:38.247Z,2.43
2019-01-15T08:18:08.678Z,2.42
2019-01-15T08:20:40.755Z,2.46
2019-01-15T08:23:22.957Z,2.42
2019-01-15T08:25:52.219Z,2.49
2019-01-15T08:28:23.296Z,2.45
2019-01-15T08:30:52.854Z,2.39
2019-01-15T08:33:23.761Z,2.46
2019-01-15T08:35:53.033Z,2.45
2019-01-15T08:38:29.341Z,2.56
2019-01-15T08:40:59.659Z,2.66
2019-01-15T08:43:30.643Z,2.70
2019-01-15T08:46:00.654Z,2.67
2019-01-15T08:48:32.859Z,2.73
2019-01-15T08:51:02.896Z,2.66
2019-01-15T08:53:38.094Z,2.77
2019-01-15T08:56:07.710Z,2.79
2019-01-15T08:58:36.972Z,2.91
2019-01-15T09:01:08.503Z,3.01
2019-01-15T09:03:44.413Z,3.10
2019-01-15T09:06:15.213Z,3.01
2019-01-15T09:08:46.120Z,3.02
2019-01-15T09:11:15.978Z,3.03
2019-01-15T09:13:45.302Z,3.01
2019-01-15T09:16:18.988Z,3.12
2019-01-15T09:18:48.287Z,3.09
2019-01-15T09:21:17.880Z,3.18
2019-01-15T09:23:47.751Z,3.35
2019-01-15T09:26:17.494Z,3.41
2019-01-15T09:28:46.801Z,3.41
2019-01-15T09:31:28.699Z,3.61
2019-01-15T09:33:58.586Z,3.55
2019-01-15T09:36:28.089Z,3.54
2019-01-15T09:39:02.243Z,3.57
2019-01-15T09:41:33.971Z,3.57
2019-01-15T09:44:05.992Z,3.60
2019-01-15T09:46:41.535Z,3.68
2019-01-15T09:49:18.968Z,3.71
2019-01-15T09:51:49.256Z,3.65
2019-01-15T09:54:22.579Z,3.61
2019-01-15T09:56:51.982Z,3.76
2019-01-15T09:59:21.618Z,3.73
2019-01-15T10:01:54.335Z,3.76
2019-01-15T10:04:24.041Z,3.80
2019-01-15T10:06:53.721Z,3.77
2019-01-15T10:09:24.366Z,3.73
2019-01-15T10:12:03.110Z,3.63
2019-01-15T10:14:42.424Z,3.65
2019-01-15T10:17:12.673Z,3.65
2019-01-15T10:19:45.247Z,3.60
2019-01-15T10:22:14.959Z,3.48
2019-01-15T10:24:46.951Z,3.57
2019-01-15T10:27:29.281Z,3.62
2019-01-15T10:30:03.341Z,3.63
2019-01-15T10:33:05.286Z,3.61
2019-01-15T10:36:02.641Z,3.74
2019-01-15T10:39:20.122Z,3.85
2019-01-15T10:41:51.214Z,3.78
2019-01-15T10:44:21.579Z,3.90
2019-01-15T10:47:26.326Z,3.86
2019-01-15T10:49:59.537Z,3.87
2019-01-15T10:52:29.190Z,3.97
2019-01-15T10:54:58.941Z,3.94
2019-01-15T10:57:29.043Z,4.03
2019-01-15T10:59:59.752Z,3.95
2019-01-15T11:02:29.016Z,3.96
2019-01-15T11:04:58.287Z,4.11
2019-01-15T11:07:27.826Z,4.13
2019-01-15T11:09:57.094Z,4.17
2019-01-15T11:12:27.639Z,4.22
2019-01-15T11:14:57.447Z,4.17
2019-01-15T11:17:29.653Z,4.21
2019-01-15T11:20:00.965Z,4.21
2019-01-15T11:22:31.306Z,4.28
2019-01-15T11:25:01.168Z,4.34
2019-01-15T11:27:31.288Z,4.25
2019-01-15T11:30:00.979Z,4.39
2019-01-15T11:32:30.247Z,4.48
2019-01-15T11:34:59.504Z,4.59
2019-01-15T11:37:42.857Z,4.71
2019-01-15T11:40:13.129Z,4.56
2019-01-15T11:42:43.124Z,4.55
2019-01-15T11:45:13.114Z,4.56
2019-01-15T11:47:46.340Z,4.62
2019-01-15T11:50:17.853Z,4.65
2019-01-15T11:52:48.843Z,4.59
2019-01-15T11:55:18.069Z,4.62
2019-01-15T11:57:48.550Z,4.64
2019-01-15T12:00:35.059Z,4.63
2019-01-15T12:03:20.366Z,4.66
2019-01-15T12:06:08.850Z,4.63
2019-01-15T12:09:12.656Z,4.66
2019-01-15T12:12:15.614Z,4.71
2019-01-15T12:15:11.099Z,4.80
2019-01-15T12:18:00.030Z,4.79
2019-01-15T12:20:47.860Z,4.84
2019-01-15T12:23:34.973Z,4.83
2019-01-15T12:26:33.127Z,4.78
2019-01-15T12:29:21.328Z,4.86
2019-01-15T12:32:00.582Z,4.94
2019-01-15T12:34:48.237Z,4.95
2019-01-15T12:37:47.867Z,4.94
2019-01-15T12:40:49.432Z,4.97
2019-01-15T12:44:08.295Z,5.07
2019-01-15T12:47:03.079Z,5.09
2019-01-15T12:53:22.532Z,5.27
2019-01-15T12:56:32.048Z,5.34
2019-01-15T12:59:45.292Z,5.27
2019-01-15T13:02:53.317Z,5.38
2019-01-15T13:05:58.697Z,5.38
2019-01-15T13:09:01.398Z,5.34
2019-01-15T13:11:55.199Z,5.40
2019-01-15T13:14:46.704Z,5.37
2019-01-15T13:17:43.370Z,5.38
2019-01-15T13:20:48.591Z,5.28
2019-01-15T13:23:36.848Z,5.32
2019-01-15T13:26:42.949Z,5.40
2019-01-15T13:29:52.785Z,5.42
2019-01-15T13:32:34.893Z,5.43
2019-01-15T13:35:24.677Z,5.53
2019-01-15T13:38:14.582Z,5.52
2019-01-15T13:41:20.915Z,5.56
2019-01-15T13:44:11.115Z,5.58
2019-01-15T13:47:17.067Z,5.59
2019-01-15T13:50:05.808Z,5.66
2019-01-15T13:52:56.990Z,5.60
2019-01-15T13:55:51.307Z,5.64
2019-01-15T13:58:36.952Z,5.74
2019-01-15T14:01:44.019Z,5.62
2019-01-15T14:04:37.972Z,5.63
2019-01-15T14:07:35.968Z,5.72
2019-01-15T14:10:37.639Z,5.68
2019-01-15T14:13:33.895Z,5.66
2019-01-15T14:16:20.423Z,5.73
2019-01-15T14:19:19.256Z,5.72
2019-01-15T14:22:24.983Z,5.73
2019-01-15T14:25:12.294Z,5.73
2019-01-15T14:27:58.977Z,5.76
2019-01-15T14:30:56.255Z,5.77
2019-01-15T14:33:44.422Z,5.79
2019-01-15T14:36:31.357Z,5.72
2019-01-15T14:39:18.244Z,5.75
2019-01-15T14:42:09.154Z,5.75
2019-01-15T14:44:59.360Z,5.69
2019-01-15T14:47:47.274Z,5.69
2019-01-15T14:50:34.644Z,5.71
2019-01-15T14:53:23.937Z,5.71
2019-01-15T14:56:11.360Z,5.67
2019-01-15T14:59:00.302Z,5.68
2019-01-15T15:01:52.235Z,5.66
2019-01-15T15:04:42.890Z,5.72
2019-01-15T15:07:41.699Z,5.68
2019-01-15T15:10:46.748Z,5.71
2019-01-15T15:13:44.573Z,5.65
2019-01-15T15:16:45.174Z,5.62
2019-01-15T15:19:46.038Z,5.64
2019-01-15T15:22:55.420Z,5.63
2019-01-15T15:25:36.247Z,5.57
2019-01-15T15:28:39.214Z,5.65
2019-01-15T15:31:26.213Z,5.56
2019-01-15T15:34:21.223Z,5.57
2019-01-15T15:37:09.961Z,5.62
2019-01-15T15:40:17.113Z,5.67
2019-01-15T15:43:08.996Z,5.55
2019-01-15T15:45:56.960Z,5.59
2019-01-15T15:48:57.937Z,5.55
2019-01-15T15:51:43.121Z,5.54
2019-01-15T15:54:31.074Z,5.56
2019-01-15T15:57:28.188Z,5.58
2019-01-15T16:00:14.968Z,5.54
2019-01-15T16:03:15.501Z,5.51
2019-01-15T16:06:09.391Z,5.57
2019-01-15T16:08:51.241Z,5.57
2019-01-15T16:11:45.305Z,5.48
2019-01-15T16:14:33.280Z,5.42
2019-01-15T16:17:20.179Z,5.49
2019-01-15T16:20:10.471Z,5.46
2019-01-15T16:23:12.170Z,5.52
2019-01-15T16:26:05.432Z,5.56
2019-01-15T16:28:54.096Z,5.55
2019-01-15T16:31:43.611Z,5.53
2019-01-15T16:34:42.273Z,5.55
2019-01-15T16:37:31.638Z,5.54
2019-01-15T16:40:26.568Z,5.50
2019-01-15T16:43:17.771Z,5.51
2019-01-15T16:46:18.267Z,5.53
2019-01-15T16:49:25.105Z,5.44
2019-01-15T16:52:25.080Z,5.49
2019-01-15T16:55:12.015Z,5.49
2019-01-15T16:57:57.523Z,5.46
2019-01-15T17:00:50.924Z,5.44
2019-01-15T17:03:32.752Z,5.39
2019-01-15T17:06:39.881Z,5.39
2019-01-15T17:09:27.826Z,5.35
2019-01-15T17:12:20.302Z,5.35
2019-01-15T17:15:17.939Z,5.30
2019-01-15T17:18:23.697Z,5.30
2019-01-15T17:21:14.491Z,5.32
2019-01-15T17:24:34.400Z,5.38
2019-01-15T17:27:27.180Z,5.36
2019-01-15T17:30:29.120Z,5.27
2019-01-15T17:33:21.894Z,5.26
2019-01-15T17:36:19.722Z,5.26
2019-01-15T17:39:15.495Z,5.28
2019-01-15T17:42:08.096Z,5.33
2019-01-15T17:45:17.387Z,5.27
2019-01-15T17:48:20.930Z,5.27
2019-01-15T17:51:14.100Z,5.25
2019-01-15T17:54:00.858Z,5.35
2019-01-15T17:57:08.322Z,5.24
2019-01-15T18:00:05.201Z,5.28
2019-01-15T18:02:52.286Z,5.28
2019-01-15T18:05:39.937Z,5.25
2019-01-15T18:08:57.519Z,5.23
2019-01-15T18:11:59.295Z,5.20
2019-01-15T18:14:48.274Z,5.24
2019-01-15T18:17:43.986Z,5.30
2019-01-15T18:20:32.580Z,5.31
2019-01-15T18:23:19.697Z,5.26
2019-01-15T18:26:13.310Z,5.26
2019-01-15T18:29:02.680Z,5.21
2019-01-15T18:32:05.968Z,5.18
2019-01-15T18:35:03.126Z,5.19
2019-01-15T18:37:54.849Z,5.17
2019-01-15T18:40:53.309Z,5.14
2019-01-15T18:43:50.508Z,5.18
2019-01-15T18:46:44.730Z,5.16
2019-01-15T18:49:36.238Z,5.19
2019-01-15T18:52:23.213Z,5.10
2019-01-15T18:55:10.100Z,5.10
2019-01-15T18:58:13.837Z,5.08
2019-01-15T19:01:01.692Z,5.12
2019-01-15T19:04:15.171Z,5.14
2019-01-15T19:07:08.309Z,5.04
2019-01-15T19:10:10.961Z,5.09
2019-01-15T19:13:16.105Z,5.01
2019-01-15T19:16:19.638Z,5.05
2019-01-15T19:19:24.282Z,5.01
2019-01-15T19:22:15.947Z,5.02
2019-01-15T19:25:10.573Z,4.97
2019-01-15T19:28:05.194Z,4.96
2019-01-15T19:30:56.990Z,4.96
2019-01-15T19:33:57.458Z,4.96
2019-01-15T19:36:52.478Z,4.90
2019-01-15T19:39:37.348Z,4.92
2019-01-15T19:42:32.213Z,4.91
2019-01-15T19:45:22.665Z,4.91
2019-01-15T19:48:13.172Z,4.84
2019-01-15T19:50:58.192Z,4.85
2019-01-15T19:53:53.155Z,4.83
2019-01-15T19:56:56.589Z,4.84
2019-01-15T19:59:50.673Z,4.86
2019-01-15T20:02:39.191Z,4.87
2019-01-15T20:05:39.676Z,4.88
2019-01-15T20:08:26.528Z,4.90
2019-01-15T20:11:11.069Z,4.87
2019-01-15T20:14:00.682Z,4.87
2019-01-15T20:16:50.340Z,4.88
2019-01-15T20:19:52.348Z,4.96
2019-01-15T20:22:53.996Z,4.93
2019-01-15T20:25:32.052Z,4.99
2019-01-15T20:28:34.345Z,4.96
2019-01-15T20:31:26.931Z,4.95
2019-01-15T20:34:11.375Z,4.99
2019-01-15T20:37:13.255Z,4.97
2019-01-15T20:40:01.673Z,5.02
2019-01-15T20:42:48.773Z,5.01
2019-01-15T20:45:51.071Z,4.93
2019-01-15T20:48:50.494Z,4.96
2019-01-15T20:51:43.510Z,4.92
2019-01-15T20:54:31.989Z,4.91
2019-01-15T20:57:39.142Z,4.92
2019-01-15T21:00:33.675Z,4.88
2019-01-15T21:03:23.509Z,4.94
2019-01-15T21:06:13.826Z,4.92
2019-01-15T21:09:00.318Z,4.98
2019-01-15T21:11:48.670Z,5.03
2019-01-15T21:14:49.958Z,4.92
2019-01-15T21:17:44.148Z,4.93
2019-01-15T21:20:33.308Z,5.00
2019-01-15T21:23:30.337Z,4.99
2019-01-15T21:26:18.239Z,4.99
2019-01-15T21:29:16.251Z,4.97
2019-01-15T21:32:05.048Z,4.92
2019-01-15T21:34:50.246Z,4.95
2019-01-15T21:37:39.232Z,4.97
2019-01-15T21:40:34.292Z,4.94
2019-01-15T21:43:27.024Z,4.98
2019-01-15T21:46:18.927Z,4.95
2019-01-15T21:49:12.987Z,5.02
2019-01-15T21:52:14.201Z,5.03
2019-01-15T21:55:08.094Z,4.94
2019-01-15T21:58:02.501Z,4.91
2019-01-15T22:01:08.860Z,4.95
2019-01-15T22:04:00.097Z,4.97
2019-01-15T22:06:52.868Z,5.05
2019-01-15T22:09:54.086Z,5.01
2019-01-15T22:12:46.433Z,4.89
2019-01-15T22:15:37.756Z,4.94
2019-01-15T22:18:39.564Z,4.93
2019-01-15T22:21:32.494Z,4.93
2019-01-15T22:24:35.996Z,4.97
2019-01-15T22:27:31.420Z,4.94
2019-01-15T22:30:24.362Z,4.91
2019-01-15T22:33:17.779Z,5.02
2019-01-15T22:36:05.988Z,4.98
2019-01-15T22:38:52.855Z,4.99
2019-01-15T22:41:39.559Z,5.04
2019-01-15T22:44:23.503Z,4.95
2019-01-15T22:47:09.836Z,4.95
2019-01-15T22:49:57.284Z,4.97
2019-01-15T22:52:48.523Z,4.99
2019-01-15T22:55:35.470Z,4.97
2019-01-15T22:58:19.093Z,4.94
2019-01-15T23:01:24.272Z,4.97
2019-01-15T23:04:13.794Z,4.88
2019-01-15T23:07:05.383Z,4.86
2019-01-15T23:09:57.624Z,4.76
2019-01-15T23:12:52.170Z,4.74
2019-01-15T23:15:40.681Z,4.75
2019-01-15T23:18:32.353Z,4.73
2019-01-15T23:21:20.644Z,4.74
2019-01-15T23:24:09.397Z,4.72
2019-01-15T23:26:52.727Z,4.79
2019-01-15T23:29:40.660Z,4.79
2019-01-15T23:32:29.898Z,4.80
2019-01-15T23:35:26.745Z,4.85
2019-01-15T23:38:15.116Z,4.87
2019-01-15T23:41:03.931Z,4.88
2019-01-15T23:43:55.963Z,4.86
2019-01-15T23:46:47.044Z,4.88
2019-01-15T23:49:34.499Z,4.85
2019-01-15T23:52:25.317Z,4.83
2019-01-15T23:55:13.865Z,4.85
2019-01-15T23:58:02.373Z,4.85
